

Wyoming Mesonet
Water Resources Data System and State Climate Office
SEO WACNet, UW USACE UMRB, USDA-ARS, BLM
| Wind | Soil | |||||||||||||||||||
| Temp | Precip | Speed | Dir | Gust | Dir | Humidity | Pressure | Solar | Snow | Temperature (Deg F) | Moisture (%) | |||||||||
| Date Time (MST) | (F) | (in) | (mph) | (deg) | (mph) | (deg) | (%) | (Mbars) | (w/m^2) | (in) | 5cm | 10cm | 20cm | 50cm | 1m | 5cm | 10cm | 20cm | 50cm | 1m |
| 2026-08-30 00:00:00 | 67.71 | 0.00 | 14.06 | 259 | 23.11 | 267 | 51.5 | 866.0 | 0.0 | -0.1 | 76.82 | 79.52 | 79.88 | 75.74 | 71.60 | 7.7% | 4.8% | 5.7% | 15.2% | 22.4% |
| 2026-08-30 01:00:00 | 67.37 | 0.00 | 16.02 | 265 | 23.22 | 264 | 52.3 | 866.0 | 0.0 | -0.1 | 76.10 | 78.80 | 79.34 | 75.92 | 71.78 | 7.5% | 4.7% | 5.7% | 15.2% | 22.4% |
| 2026-08-30 02:00:00 | 68.04 | 0.00 | 14.16 | 263 | 21.61 | 259 | 51.2 | 866.0 | 0.0 | -0.0 | 75.38 | 78.08 | 78.98 | 75.92 | 71.78 | 7.4% | 4.7% | 5.7% | 15.2% | 22.4% |
| 2026-08-30 03:00:00 | 67.68 | 0.00 | 13.20 | 268 | 21.25 | 274 | 50.6 | 866.0 | 0.0 | -0.1 | 75.02 | 77.54 | 78.62 | 75.92 | 71.60 | 7.4% | 4.7% | 5.6% | 15.1% | 22.4% |
| 2026-08-30 04:00:00 | 67.89 | 0.00 | 15.64 | 272 | 25.46 | 264 | 49.5 | 866.0 | 0.0 | -0.1 | 74.66 | 77.00 | 78.26 | 75.92 | 71.60 | 7.4% | 4.7% | 5.6% | 15.1% | 22.4% |
| 2026-08-30 05:00:00 | 67.55 | 0.00 | 11.35 | 266 | 23.85 | 271 | 50.7 | 866.0 | 0.0 | -0.1 | 74.12 | 76.64 | 77.72 | 75.92 | 71.78 | 7.3% | 4.6% | 5.6% | 15.1% | 22.4% |
| 2026-08-30 06:00:00 | 66.70 | 0.00 | 11.54 | 273 | 19.62 | 274 | 53.4 | 866.0 | 32.3 | -0.1 | 73.76 | 76.10 | 77.54 | 75.92 | 71.78 | 7.3% | 4.6% | 5.6% | 15.1% | 22.4% |
| 2026-08-30 07:00:00 | 68.04 | 0.00 | 8.67 | 291 | 16.52 | 288 | 53.7 | 866.0 | 126.8 | 0.0 | 73.40 | 75.74 | 77.18 | 75.92 | 71.78 | 7.2% | 4.6% | 5.5% | 15.1% | 22.4% |
| 2026-08-30 08:00:00 | 75.54 | 0.00 | 15.24 | 279 | 22.73 | 276 | 41.1 | 866.0 | 460.0 | 0.1 | 73.76 | 75.38 | 76.82 | 75.92 | 71.78 | 7.3% | 4.6% | 5.6% | 15.1% | 22.4% |
| 2026-08-30 09:00:00 | 79.41 | 0.00 | 10.84 | 278 | 22.86 | 278 | 37.0 | 867.0 | 570.4 | 0.1 | 75.56 | 75.56 | 76.64 | 75.92 | 71.78 | 7.5% | 4.6% | 5.5% | 15.1% | 22.4% |
| 2026-08-30 10:00:00 | 81.82 | 0.00 | 12.28 | 274 | 21.25 | 283 | 32.6 | 867.0 | 718.7 | 0.2 | 77.72 | 76.46 | 76.64 | 75.74 | 71.78 | 7.8% | 4.6% | 5.5% | 15.1% | 22.4% |
| 2026-08-30 11:00:00 | 83.70 | 0.00 | 15.44 | 266 | 21.74 | 241 | 23.0 | 866.0 | 807.0 | 0.1 | 80.96 | 77.90 | 76.82 | 75.74 | 71.78 | 8.2% | 4.7% | 5.5% | 15.0% | 22.4% |
| 2026-08-30 12:00:00 | 84.96 | 0.00 | 16.73 | 247 | 26.71 | 251 | 22.6 | 866.0 | 559.3 | 0.0 | 84.38 | 79.88 | 77.18 | 75.74 | 71.78 | 8.7% | 4.7% | 5.5% | 15.1% | 22.4% |
| 2026-08-30 13:00:00 | 85.01 | 0.00 | 18.86 | 236 | 29.82 | 248 | 21.4 | 866.0 | 357.0 | 0.0 | 86.54 | 81.68 | 77.90 | 75.74 | 71.78 | 8.9% | 4.7% | 5.5% | 15.0% | 22.4% |
| 2026-08-30 14:00:00 | 85.91 | 0.00 | 25.52 | 249 | 47.20 | 257 | 21.3 | 866.0 | 817.0 | -0.1 | 87.08 | 82.94 | 78.62 | 75.56 | 71.78 | 9.0% | 4.8% | 5.5% | 15.1% | 22.4% |
| 2026-08-30 15:00:00 | 78.53 | 0.00 | 24.81 | 326 | 38.14 | 246 | 36.6 | 867.0 | 199.1 | -0.1 | 87.08 | 83.48 | 79.34 | 75.56 | 71.78 | 8.9% | 4.8% | 5.5% | 15.0% | 22.4% |
| 2026-08-30 16:00:00 | 70.88 | 0.00 | 17.70 | 1 | 34.29 | 343 | 47.7 | 867.0 | 183.3 | 0.1 | 86.18 | 83.84 | 79.70 | 75.38 | 71.78 | 8.7% | 4.8% | 5.5% | 15.0% | 22.4% |
| 2026-08-30 17:00:00 | 68.49 | 0.00 | 19.53 | 10 | 28.57 | 352 | 49.2 | 867.0 | 278.3 | 0.0 | 84.92 | 83.66 | 80.06 | 75.38 | 71.78 | 8.5% | 4.8% | 5.5% | 15.0% | 22.4% |
| 2026-08-30 18:00:00 | 67.03 | 0.00 | 9.85 | 1 | 24.96 | 13 | 50.2 | 867.0 | 105.2 | -0.0 | 83.12 | 83.30 | 80.24 | 75.38 | 71.78 | 8.2% | 4.8% | 5.5% | 15.0% | 22.4% |
| 2026-08-30 19:00:00 | 62.78 | 0.00 | 4.43 | 13 | 14.16 | 3 | 55.5 | 867.0 | 0.0 | -0.1 | 81.32 | 82.58 | 80.24 | 75.38 | 71.78 | 7.9% | 4.7% | 5.5% | 15.0% | 22.4% |
| 2026-08-30 20:00:00 | 56.01 | 0.00 | 4.16 | 346 | 8.20 | 352 | 64.8 | 868.0 | 0.0 | -0.2 | 79.34 | 81.50 | 80.06 | 75.38 | 71.78 | 7.7% | 4.7% | 5.4% | 15.0% | 22.4% |
| 2026-08-30 21:00:00 | 55.11 | 0.00 | 3.26 | 274 | 6.21 | 304 | 69.7 | 869.0 | 0.0 | -0.2 | 77.36 | 80.42 | 79.70 | 75.38 | 71.78 | 7.4% | 4.7% | 5.4% | 15.0% | 22.4% |
| 2026-08-30 22:00:00 | 53.96 | 0.00 | 4.26 | 338 | 7.83 | 332 | 74.9 | 869.0 | 0.0 | -0.1 | 75.74 | 79.16 | 79.34 | 75.56 | 71.78 | 7.2% | 4.6% | 5.4% | 15.0% | 22.4% |
| 2026-08-30 23:00:00 | 52.11 | 0.00 | 0.48 | 193 | 4.72 | 334 | 76.7 | 869.0 | 0.0 | -0.0 | 74.30 | 78.08 | 78.80 | 75.56 | 71.78 | 7.1% | 4.6% | 5.4% | 15.0% | 22.4% |